Pamukkale, Turkey
Current Conditions -  °F | °C
As of 7:50 AM on Monday 22 Dec 2014 (Local Time) from LTAY Reporting Station
Broken Clouds Broken Clouds  
Wind Chill: -2°   Ceiling: 9000
Heat Index:   Visibility: 6mi
Dew Point:   Wind: 7mph
Humidity: 93%   Direction: 280°W
Pressure: 30.18"   Gusts: NA
Location:  37.89°N, 29.13°E
Report Text: LTAY 220450Z 28006KT 250V320 9999 SCT030 BKN090 01/M00 Q1022
Loading
Personal Weather Stations






























Interactive Weather Map New forecast layout! Learn more

10-Day Weather Forecast

Advertisements
Track Severe Weather on mobile